sensor_id;sensor_type;location;lat;lon;timestamp;temperature;humidity
38090;DHT22;23904;52.322;10.232;2023-02-05T00:00:18;1.60;99.90
38090;DHT22;23904;52.322;10.232;2023-02-05T00:02:44;1.60;99.90
38090;DHT22;23904;52.322;10.232;2023-02-05T00:05:09;1.60;99.90
38090;DHT22;23904;52.322;10.232;2023-02-05T00:07:35;1.60;99.90
38090;DHT22;23904;52.322;10.232;2023-02-05T00:10:01;1.60;99.90
38090;DHT22;23904;52.322;10.232;2023-02-05T00:12:26;1.50;99.90
38090;DHT22;23904;52.322;10.232;2023-02-05T00:14:52;1.50;99.90
38090;DHT22;23904;52.322;10.232;2023-02-05T00:17:17;1.50;99.90
38090;DHT22;23904;52.322;10.232;2023-02-05T00:19:43;1.50;99.90
38090;DHT22;23904;52.322;10.232;2023-02-05T00:22:09;1.50;99.90
38090;DHT22;23904;52.322;10.232;2023-02-05T00:24:34;1.50;99.90
38090;DHT22;23904;52.322;10.232;2023-02-05T00:27:00;1.50;99.90
38090;DHT22;23904;52.322;10.232;2023-02-05T00:29:25;1.50;99.90
38090;DHT22;23904;52.322;10.232;2023-02-05T00:31:51;1.50;99.90
38090;DHT22;23904;52.322;10.232;2023-02-05T00:34:17;1.50;99.90
38090;DHT22;23904;52.322;10.232;2023-02-05T00:36:42;1.40;99.90
38090;DHT22;23904;52.322;10.232;2023-02-05T00:39:08;1.40;99.90
38090;DHT22;23904;52.322;10.232;2023-02-05T00:41:36;1.30;99.90
38090;DHT22;23904;52.322;10.232;2023-02-05T00:44:03;1.30;99.90
38090;DHT22;23904;52.322;10.232;2023-02-05T00:46:29;1.40;99.90
38090;DHT22;23904;52.322;10.232;2023-02-05T00:48:54;1.30;99.90
38090;DHT22;23904;52.322;10.232;2023-02-05T00:51:20;1.30;99.90
38090;DHT22;23904;52.322;10.232;2023-02-05T00:53:46;1.30;99.90
38090;DHT22;23904;52.322;10.232;2023-02-05T00:56:11;1.30;99.90
38090;DHT22;23904;52.322;10.232;2023-02-05T00:58:37;1.30;99.90
38090;DHT22;23904;52.322;10.232;2023-02-05T01:01:03;1.30;99.90
38090;DHT22;23904;52.322;10.232;2023-02-05T01:03:29;1.40;99.90
38090;DHT22;23904;52.322;10.232;2023-02-05T01:05:54;1.30;99.90
38090;DHT22;23904;52.322;10.232;2023-02-05T01:08:21;1.30;99.90
38090;DHT22;23904;52.322;10.232;2023-02-05T01:10:48;1.30;99.90
38090;DHT22;23904;52.322;10.232;2023-02-05T01:13:16;1.20;99.90
38090;DHT22;23904;52.322;10.232;2023-02-05T01:15:42;1.20;99.90
38090;DHT22;23904;52.322;10.232;2023-02-05T01:18:08;1.20;99.90
38090;DHT22;23904;52.322;10.232;2023-02-05T01:20:36;1.20;99.90
38090;DHT22;23904;52.322;10.232;2023-02-05T01:23:02;1.10;99.90
38090;DHT22;23904;52.322;10.232;2023-02-05T01:25:28;1.10;99.90
38090;DHT22;23904;52.322;10.232;2023-02-05T01:27:54;1.10;99.90
38090;DHT22;23904;52.322;10.232;2023-02-05T01:30:19;1.10;99.90
38090;DHT22;23904;52.322;10.232;2023-02-05T01:32:45;1.10;99.90
38090;DHT22;23904;52.322;10.232;2023-02-05T01:35:10;1.10;99.90
38090;DHT22;23904;52.322;10.232;2023-02-05T01:37:36;1.10;99.90
38090;DHT22;23904;52.322;10.232;2023-02-05T01:40:02;1.10;99.90
38090;DHT22;23904;52.322;10.232;2023-02-05T01:42:29;1.10;99.90
38090;DHT22;23904;52.322;10.232;2023-02-05T01:47:48;1.00;99.90
38090;DHT22;23904;52.322;10.232;2023-02-05T01:50:16;1.00;99.90
38090;DHT22;23904;52.322;10.232;2023-02-05T01:52:44;1.00;99.90
38090;DHT22;23904;52.322;10.232;2023-02-05T01:55:11;1.00;99.90
38090;DHT22;23904;52.322;10.232;2023-02-05T01:57:39;1.00;99.90
38090;DHT22;23904;52.322;10.232;2023-02-05T02:00:06;0.90;99.90
38090;DHT22;23904;52.322;10.232;2023-02-05T02:02:34;0.90;99.90
38090;DHT22;23904;52.322;10.232;2023-02-05T02:05:09;0.90;99.90
38090;DHT22;23904;52.322;10.232;2023-02-05T02:07:39;0.90;99.90
38090;DHT22;23904;52.322;10.232;2023-02-05T02:10:06;0.80;99.90
38090;DHT22;23904;52.322;10.232;2023-02-05T02:12:36;0.90;99.90
38090;DHT22;23904;52.322;10.232;2023-02-05T02:15:10;0.80;99.90
38090;DHT22;23904;52.322;10.232;2023-02-05T02:17:40;0.70;99.90
38090;DHT22;23904;52.322;10.232;2023-02-05T02:20:19;0.70;99.90
38090;DHT22;23904;52.322;10.232;2023-02-05T02:23:18;0.70;99.90
38090;DHT22;23904;52.322;10.232;2023-02-05T02:29:00;0.70;99.90
38090;DHT22;23904;52.322;10.232;2023-02-05T02:31:35;0.60;99.90
38090;DHT22;23904;52.322;10.232;2023-02-05T02:34:24;0.60;99.90
38090;DHT22;23904;52.322;10.232;2023-02-05T02:37:04;0.60;99.90
38090;DHT22;23904;52.322;10.232;2023-02-05T02:39:39;0.60;99.90
38090;DHT22;23904;52.322;10.232;2023-02-05T02:42:40;0.60;99.90
38090;DHT22;23904;52.322;10.232;2023-02-05T02:45:11;0.50;99.90
38090;DHT22;23904;52.322;10.232;2023-02-05T02:47:51;0.60;99.90
38090;DHT22;23904;52.322;10.232;2023-02-05T02:50:22;0.60;99.90
38090;DHT22;23904;52.322;10.232;2023-02-05T02:52:50;0.60;99.90
38090;DHT22;23904;52.322;10.232;2023-02-05T02:55:18;0.60;99.90
38090;DHT22;23904;52.322;10.232;2023-02-05T02:57:46;0.60;99.90
38090;DHT22;23904;52.322;10.232;2023-02-05T03:00:21;0.50;99.90
38090;DHT22;23904;52.322;10.232;2023-02-05T03:02:49;0.50;99.90
38090;DHT22;23904;52.322;10.232;2023-02-05T03:05:20;0.50;99.90
38090;DHT22;23904;52.322;10.232;2023-02-05T03:08:00;0.50;99.90
38090;DHT22;23904;52.322;10.232;2023-02-05T03:10:38;0.50;99.90
38090;DHT22;23904;52.322;10.232;2023-02-05T03:13:11;0.50;99.90
38090;DHT22;23904;52.322;10.232;2023-02-05T03:15:40;0.40;99.90
38090;DHT22;23904;52.322;10.232;2023-02-05T03:18:06;0.40;99.90
38090;DHT22;23904;52.322;10.232;2023-02-05T03:20:40;0.50;99.90
38090;DHT22;23904;52.322;10.232;2023-02-05T03:23:09;0.40;99.90
38090;DHT22;23904;52.322;10.232;2023-02-05T03:25:35;0.40;99.90
38090;DHT22;23904;52.322;10.232;2023-02-05T03:28:00;0.40;99.90
38090;DHT22;23904;52.322;10.232;2023-02-05T03:30:32;0.50;99.90
38090;DHT22;23904;52.322;10.232;2023-02-05T03:39:16;0.50;99.90
38090;DHT22;23904;52.322;10.232;2023-02-05T03:41:58;0.50;99.90
38090;DHT22;23904;52.322;10.232;2023-02-05T03:50:28;0.40;99.90
38090;DHT22;23904;52.322;10.232;2023-02-05T03:53:20;0.40;99.90
38090;DHT22;23904;52.322;10.232;2023-02-05T03:58:52;0.50;99.90
38090;DHT22;23904;52.322;10.232;2023-02-05T04:01:19;0.50;99.90
38090;DHT22;23904;52.322;10.232;2023-02-05T04:03:46;0.50;99.90
38090;DHT22;23904;52.322;10.232;2023-02-05T04:06:12;0.50;99.90
38090;DHT22;23904;52.322;10.232;2023-02-05T04:08:38;0.50;99.90
38090;DHT22;23904;52.322;10.232;2023-02-05T04:11:04;0.50;99.90
38090;DHT22;23904;52.322;10.232;2023-02-05T04:13:29;0.50;99.90
38090;DHT22;23904;52.322;10.232;2023-02-05T04:15:55;0.60;99.90
38090;DHT22;23904;52.322;10.232;2023-02-05T04:18:20;0.50;99.90
38090;DHT22;23904;52.322;10.232;2023-02-05T04:20:46;0.50;99.90
38090;DHT22;23904;52.322;10.232;2023-02-05T04:23:11;0.50;99.90
38090;DHT22;23904;52.322;10.232;2023-02-05T04:25:38;0.50;99.90
38090;DHT22;23904;52.322;10.232;2023-02-05T04:28:05;0.50;99.90
38090;DHT22;23904;52.322;10.232;2023-02-05T04:30:31;0.50;99.90
38090;DHT22;23904;52.322;10.232;2023-02-05T04:32:57;0.50;99.90
38090;DHT22;23904;52.322;10.232;2023-02-05T04:35:23;0.50;99.90
38090;DHT22;23904;52.322;10.232;2023-02-05T04:37:49;0.50;99.90
38090;DHT22;23904;52.322;10.232;2023-02-05T04:40:14;0.50;99.90
38090;DHT22;23904;52.322;10.232;2023-02-05T04:42:40;0.60;99.90
38090;DHT22;23904;52.322;10.232;2023-02-05T04:45:06;0.60;99.90
38090;DHT22;23904;52.322;10.232;2023-02-05T04:47:32;0.60;99.90
38090;DHT22;23904;52.322;10.232;2023-02-05T04:49:58;0.60;99.90
38090;DHT22;23904;52.322;10.232;2023-02-05T04:52:23;0.60;99.90
38090;DHT22;23904;52.322;10.232;2023-02-05T04:54:49;0.50;99.90
38090;DHT22;23904;52.322;10.232;2023-02-05T04:57:14;0.40;99.90
38090;DHT22;23904;52.322;10.232;2023-02-05T04:59:40;0.50;99.90
38090;DHT22;23904;52.322;10.232;2023-02-05T05:02:05;0.40;99.90
38090;DHT22;23904;52.322;10.232;2023-02-05T05:04:31;0.50;99.90
38090;DHT22;23904;52.322;10.232;2023-02-05T05:06:57;0.50;99.90
38090;DHT22;23904;52.322;10.232;2023-02-05T05:09:22;0.50;99.90
38090;DHT22;23904;52.322;10.232;2023-02-05T05:11:53;0.40;99.90
38090;DHT22;23904;52.322;10.232;2023-02-05T05:14:20;0.50;99.90
38090;DHT22;23904;52.322;10.232;2023-02-05T05:16:47;0.50;99.90
38090;DHT22;23904;52.322;10.232;2023-02-05T05:19:13;0.50;99.90
38090;DHT22;23904;52.322;10.232;2023-02-05T05:21:39;0.50;99.90
38090;DHT22;23904;52.322;10.232;2023-02-05T05:24:05;0.50;99.90
38090;DHT22;23904;52.322;10.232;2023-02-05T05:26:31;0.50;99.90
38090;DHT22;23904;52.322;10.232;2023-02-05T05:28:58;0.50;99.90
38090;DHT22;23904;52.322;10.232;2023-02-05T05:31:23;0.50;99.90
38090;DHT22;23904;52.322;10.232;2023-02-05T05:33:49;0.40;99.90
38090;DHT22;23904;52.322;10.232;2023-02-05T05:36:15;0.40;99.90
38090;DHT22;23904;52.322;10.232;2023-02-05T05:38:41;0.50;99.90
38090;DHT22;23904;52.322;10.232;2023-02-05T05:41:09;0.50;99.90
38090;DHT22;23904;52.322;10.232;2023-02-05T05:43:57;0.60;99.90
38090;DHT22;23904;52.322;10.232;2023-02-05T05:46:24;0.60;99.90
38090;DHT22;23904;52.322;10.232;2023-02-05T05:48:52;0.60;99.90
38090;DHT22;23904;52.322;10.232;2023-02-05T05:51:20;0.60;99.90
38090;DHT22;23904;52.322;10.232;2023-02-05T05:53:46;0.60;99.90
38090;DHT22;23904;52.322;10.232;2023-02-05T05:56:12;0.60;99.90
38090;DHT22;23904;52.322;10.232;2023-02-05T05:58:38;0.60;99.90
38090;DHT22;23904;52.322;10.232;2023-02-05T06:01:05;0.70;99.90
38090;DHT22;23904;52.322;10.232;2023-02-05T06:03:31;0.70;99.90
38090;DHT22;23904;52.322;10.232;2023-02-05T06:06:00;0.60;99.90
38090;DHT22;23904;52.322;10.232;2023-02-05T06:08:26;0.60;99.90
38090;DHT22;23904;52.322;10.232;2023-02-05T06:10:52;0.70;99.90
38090;DHT22;23904;52.322;10.232;2023-02-05T06:13:17;0.60;99.90
38090;DHT22;23904;52.322;10.232;2023-02-05T06:15:43;0.60;99.90
38090;DHT22;23904;52.322;10.232;2023-02-05T06:18:08;0.60;99.90
38090;DHT22;23904;52.322;10.232;2023-02-05T06:20:34;0.60;99.90
38090;DHT22;23904;52.322;10.232;2023-02-05T06:22:59;0.60;99.90
38090;DHT22;23904;52.322;10.232;2023-02-05T06:25:25;0.60;99.90
38090;DHT22;23904;52.322;10.232;2023-02-05T06:27:50;0.60;99.90
38090;DHT22;23904;52.322;10.232;2023-02-05T06:30:16;0.60;99.90
38090;DHT22;23904;52.322;10.232;2023-02-05T06:32:42;0.60;99.90
38090;DHT22;23904;52.322;10.232;2023-02-05T06:35:07;0.60;99.90
38090;DHT22;23904;52.322;10.232;2023-02-05T06:37:33;0.60;99.90
38090;DHT22;23904;52.322;10.232;2023-02-05T06:39:58;0.60;99.90
38090;DHT22;23904;52.322;10.232;2023-02-05T06:42:24;0.60;99.90
38090;DHT22;23904;52.322;10.232;2023-02-05T06:44:49;0.60;99.90
38090;DHT22;23904;52.322;10.232;2023-02-05T06:47:15;0.60;99.90
38090;DHT22;23904;52.322;10.232;2023-02-05T06:49:40;0.60;99.90
38090;DHT22;23904;52.322;10.232;2023-02-05T06:52:06;0.60;99.90
38090;DHT22;23904;52.322;10.232;2023-02-05T06:54:33;0.60;99.90
38090;DHT22;23904;52.322;10.232;2023-02-05T06:56:58;0.60;99.90
38090;DHT22;23904;52.322;10.232;2023-02-05T06:59:24;0.50;99.90
38090;DHT22;23904;52.322;10.232;2023-02-05T07:01:49;0.50;99.90
38090;DHT22;23904;52.322;10.232;2023-02-05T07:04:15;0.50;99.90
38090;DHT22;23904;52.322;10.232;2023-02-05T07:06:41;0.50;99.90
38090;DHT22;23904;52.322;10.232;2023-02-05T07:09:06;0.60;99.90
38090;DHT22;23904;52.322;10.232;2023-02-05T07:11:32;0.60;99.90
38090;DHT22;23904;52.322;10.232;2023-02-05T07:14:02;0.60;99.90
38090;DHT22;23904;52.322;10.232;2023-02-05T07:16:31;0.60;99.90
38090;DHT22;23904;52.322;10.232;2023-02-05T07:18:57;0.60;99.90
38090;DHT22;23904;52.322;10.232;2023-02-05T07:21:23;0.70;99.90
38090;DHT22;23904;52.322;10.232;2023-02-05T07:23:48;0.70;99.90
38090;DHT22;23904;52.322;10.232;2023-02-05T07:26:16;0.70;99.90
38090;DHT22;23904;52.322;10.232;2023-02-05T07:28:42;0.70;99.90
38090;DHT22;23904;52.322;10.232;2023-02-05T07:31:11;0.70;99.90
38090;DHT22;23904;52.322;10.232;2023-02-05T07:33:40;0.70;99.90
38090;DHT22;23904;52.322;10.232;2023-02-05T07:36:08;0.60;99.90
38090;DHT22;23904;52.322;10.232;2023-02-05T07:38:35;0.60;99.90
38090;DHT22;23904;52.322;10.232;2023-02-05T07:41:03;0.60;99.90
38090;DHT22;23904;52.322;10.232;2023-02-05T07:43:29;0.60;99.90
38090;DHT22;23904;52.322;10.232;2023-02-05T07:45:57;0.60;99.90
38090;DHT22;23904;52.322;10.232;2023-02-05T07:48:24;0.60;99.90
38090;DHT22;23904;52.322;10.232;2023-02-05T07:50:50;0.60;99.90
38090;DHT22;23904;52.322;10.232;2023-02-05T07:53:16;0.70;99.90
38090;DHT22;23904;52.322;10.232;2023-02-05T07:55:41;0.80;99.90
38090;DHT22;23904;52.322;10.232;2023-02-05T07:58:07;0.80;99.90
38090;DHT22;23904;52.322;10.232;2023-02-05T08:00:32;0.80;99.90
38090;DHT22;23904;52.322;10.232;2023-02-05T08:02:59;0.90;99.90
38090;DHT22;23904;52.322;10.232;2023-02-05T08:05:25;1.00;99.90
38090;DHT22;23904;52.322;10.232;2023-02-05T08:07:50;1.00;99.90
38090;DHT22;23904;52.322;10.232;2023-02-05T08:10:16;1.10;99.90
38090;DHT22;23904;52.322;10.232;2023-02-05T08:12:42;1.10;99.90
38090;DHT22;23904;52.322;10.232;2023-02-05T08:15:08;1.10;99.90
38090;DHT22;23904;52.322;10.232;2023-02-05T08:17:34;1.20;99.90
38090;DHT22;23904;52.322;10.232;2023-02-05T08:19:59;1.30;99.90
38090;DHT22;23904;52.322;10.232;2023-02-05T08:22:36;1.50;99.90
38090;DHT22;23904;52.322;10.232;2023-02-05T08:25:04;1.60;99.90
38090;DHT22;23904;52.322;10.232;2023-02-05T08:27:35;1.80;99.90
38090;DHT22;23904;52.322;10.232;2023-02-05T08:30:06;1.80;99.90
38090;DHT22;23904;52.322;10.232;2023-02-05T08:32:34;2.00;99.90
38090;DHT22;23904;52.322;10.232;2023-02-05T08:35:00;2.10;99.90
38090;DHT22;23904;52.322;10.232;2023-02-05T08:37:26;2.10;99.90
38090;DHT22;23904;52.322;10.232;2023-02-05T08:39:51;2.20;99.90
38090;DHT22;23904;52.322;10.232;2023-02-05T08:42:17;2.30;99.90
38090;DHT22;23904;52.322;10.232;2023-02-05T08:44:43;2.30;99.90
38090;DHT22;23904;52.322;10.232;2023-02-05T08:47:09;2.40;99.90
38090;DHT22;23904;52.322;10.232;2023-02-05T08:49:34;2.30;99.90
38090;DHT22;23904;52.322;10.232;2023-02-05T08:52:00;2.40;99.90
38090;DHT22;23904;52.322;10.232;2023-02-05T08:54:27;2.40;99.90
38090;DHT22;23904;52.322;10.232;2023-02-05T08:56:52;2.50;99.90
38090;DHT22;23904;52.322;10.232;2023-02-05T08:59:18;2.40;99.90
38090;DHT22;23904;52.322;10.232;2023-02-05T09:01:44;2.50;99.90
38090;DHT22;23904;52.322;10.232;2023-02-05T09:04:15;2.40;99.90
38090;DHT22;23904;52.322;10.232;2023-02-05T09:06:42;2.30;99.90
38090;DHT22;23904;52.322;10.232;2023-02-05T09:09:07;2.20;99.90
38090;DHT22;23904;52.322;10.232;2023-02-05T09:11:33;2.20;99.90
38090;DHT22;23904;52.322;10.232;2023-02-05T09:13:59;2.20;99.90
38090;DHT22;23904;52.322;10.232;2023-02-05T09:16:25;2.30;99.90
38090;DHT22;23904;52.322;10.232;2023-02-05T09:18:53;2.50;99.90
38090;DHT22;23904;52.322;10.232;2023-02-05T09:21:20;2.60;99.90
38090;DHT22;23904;52.322;10.232;2023-02-05T09:23:46;2.50;99.90
38090;DHT22;23904;52.322;10.232;2023-02-05T09:26:11;2.50;99.90
38090;DHT22;23904;52.322;10.232;2023-02-05T09:28:38;2.70;99.90
38090;DHT22;23904;52.322;10.232;2023-02-05T09:31:06;2.70;99.90
38090;DHT22;23904;52.322;10.232;2023-02-05T09:33:33;2.70;99.90
38090;DHT22;23904;52.322;10.232;2023-02-05T09:36:07;2.70;99.90
38090;DHT22;23904;52.322;10.232;2023-02-05T09:38:40;2.70;99.90
38090;DHT22;23904;52.322;10.232;2023-02-05T09:44:04;2.80;99.90
38090;DHT22;23904;52.322;10.232;2023-02-05T09:46:55;2.80;99.90
38090;DHT22;23904;52.322;10.232;2023-02-05T09:49:40;2.80;99.90
38090;DHT22;23904;52.322;10.232;2023-02-05T09:52:36;2.80;99.90
38090;DHT22;23904;52.322;10.232;2023-02-05T09:55:07;2.90;99.90
38090;DHT22;23904;52.322;10.232;2023-02-05T09:57:41;3.00;99.90
38090;DHT22;23904;52.322;10.232;2023-02-05T10:00:28;3.00;99.90
38090;DHT22;23904;52.322;10.232;2023-02-05T10:03:29;2.90;99.90
38090;DHT22;23904;52.322;10.232;2023-02-05T10:06:45;3.00;99.90
38090;DHT22;23904;52.322;10.232;2023-02-05T10:09:38;2.90;99.90
38090;DHT22;23904;52.322;10.232;2023-02-05T10:12:29;2.90;99.90
38090;DHT22;23904;52.322;10.232;2023-02-05T10:18:17;2.90;99.90
38090;DHT22;23904;52.322;10.232;2023-02-05T10:21:06;2.90;99.90
38090;DHT22;23904;52.322;10.232;2023-02-05T10:26:31;3.00;99.90
38090;DHT22;23904;52.322;10.232;2023-02-05T10:29:14;3.10;99.90
38090;DHT22;23904;52.322;10.232;2023-02-05T10:35:00;3.10;99.90
38090;DHT22;23904;52.322;10.232;2023-02-05T10:37:43;3.10;99.90
38090;DHT22;23904;52.322;10.232;2023-02-05T10:40:15;3.10;99.90
38090;DHT22;23904;52.322;10.232;2023-02-05T10:43:05;3.30;99.90
38090;DHT22;23904;52.322;10.232;2023-02-05T10:45:38;3.30;99.90
38090;DHT22;23904;52.322;10.232;2023-02-05T10:48:21;3.40;99.90
38090;DHT22;23904;52.322;10.232;2023-02-05T10:51:00;3.30;99.90
38090;DHT22;23904;52.322;10.232;2023-02-05T10:53:28;3.20;99.90
38090;DHT22;23904;52.322;10.232;2023-02-05T10:55:56;3.30;99.90
38090;DHT22;23904;52.322;10.232;2023-02-05T10:58:47;3.20;99.90
38090;DHT22;23904;52.322;10.232;2023-02-05T11:01:22;3.20;99.90
38090;DHT22;23904;52.322;10.232;2023-02-05T11:03:53;3.20;99.90
38090;DHT22;23904;52.322;10.232;2023-02-05T11:06:22;3.20;99.90
38090;DHT22;23904;52.322;10.232;2023-02-05T11:08:49;3.10;99.90
38090;DHT22;23904;52.322;10.232;2023-02-05T11:13:54;3.40;99.90
38090;DHT22;23904;52.322;10.232;2023-02-05T11:16:22;3.60;99.90
38090;DHT22;23904;52.322;10.232;2023-02-05T11:18:59;3.90;99.90
38090;DHT22;23904;52.322;10.232;2023-02-05T11:21:45;3.90;99.90
38090;DHT22;23904;52.322;10.232;2023-02-05T11:24:31;4.20;99.90
38090;DHT22;23904;52.322;10.232;2023-02-05T11:27:25;4.40;99.90
38090;DHT22;23904;52.322;10.232;2023-02-05T11:29:57;4.40;99.90
38090;DHT22;23904;52.322;10.232;2023-02-05T11:32:33;4.60;99.90
38090;DHT22;23904;52.322;10.232;2023-02-05T11:35:16;4.60;99.90
38090;DHT22;23904;52.322;10.232;2023-02-05T11:37:44;4.60;99.90
38090;DHT22;23904;52.322;10.232;2023-02-05T11:40:20;4.60;99.90
38090;DHT22;23904;52.322;10.232;2023-02-05T11:43:07;4.60;99.90
38090;DHT22;23904;52.322;10.232;2023-02-05T11:45:47;4.70;99.90
38090;DHT22;23904;52.322;10.232;2023-02-05T11:48:37;4.70;99.90
38090;DHT22;23904;52.322;10.232;2023-02-05T11:51:15;4.50;99.90
38090;DHT22;23904;52.322;10.232;2023-02-05T11:53:55;4.70;99.90
38090;DHT22;23904;52.322;10.232;2023-02-05T11:56:23;4.70;99.90
38090;DHT22;23904;52.322;10.232;2023-02-05T11:59:04;4.90;99.90
38090;DHT22;23904;52.322;10.232;2023-02-05T12:01:38;4.80;99.90
38090;DHT22;23904;52.322;10.232;2023-02-05T12:06:49;4.50;99.90
38090;DHT22;23904;52.322;10.232;2023-02-05T12:09:22;4.60;99.90
38090;DHT22;23904;52.322;10.232;2023-02-05T12:15:10;4.90;99.90
38090;DHT22;23904;52.322;10.232;2023-02-05T12:18:07;4.90;99.90
38090;DHT22;23904;52.322;10.232;2023-02-05T12:23:54;5.00;99.90
38090;DHT22;23904;52.322;10.232;2023-02-05T12:26:40;5.10;99.90
38090;DHT22;23904;52.322;10.232;2023-02-05T12:31:53;4.90;99.90
38090;DHT22;23904;52.322;10.232;2023-02-05T12:37:22;4.90;99.90
38090;DHT22;23904;52.322;10.232;2023-02-05T12:40:01;4.90;99.90
38090;DHT22;23904;52.322;10.232;2023-02-05T12:42:55;4.90;99.90
38090;DHT22;23904;52.322;10.232;2023-02-05T12:56:55;5.10;99.90
38090;DHT22;23904;52.322;10.232;2023-02-05T12:59:46;5.10;99.90
38090;DHT22;23904;52.322;10.232;2023-02-05T13:02:32;5.50;99.90
38090;DHT22;23904;52.322;10.232;2023-02-05T13:08:16;5.90;99.90
38090;DHT22;23904;52.322;10.232;2023-02-05T13:11:01;5.80;99.90
38090;DHT22;23904;52.322;10.232;2023-02-05T13:13:38;5.90;99.90
38090;DHT22;23904;52.322;10.232;2023-02-05T13:16:12;5.90;99.90
38090;DHT22;23904;52.322;10.232;2023-02-05T13:18:43;5.80;99.90
38090;DHT22;23904;52.322;10.232;2023-02-05T13:21:21;6.10;99.90
38090;DHT22;23904;52.322;10.232;2023-02-05T13:24:25;6.70;99.90
38090;DHT22;23904;52.322;10.232;2023-02-05T13:27:26;7.40;99.90
38090;DHT22;23904;52.322;10.232;2023-02-05T13:30:23;7.60;99.90
38090;DHT22;23904;52.322;10.232;2023-02-05T13:32:55;7.90;99.90
38090;DHT22;23904;52.322;10.232;2023-02-05T13:35:23;8.70;99.90
38090;DHT22;23904;52.322;10.232;2023-02-05T13:38:21;8.60;99.90
38090;DHT22;23904;52.322;10.232;2023-02-05T13:41:27;9.00;99.90
38090;DHT22;23904;52.322;10.232;2023-02-05T13:44:06;8.90;99.90
38090;DHT22;23904;52.322;10.232;2023-02-05T13:55:52;8.50;99.90
38090;DHT22;23904;52.322;10.232;2023-02-05T13:58:54;8.40;99.90
38090;DHT22;23904;52.322;10.232;2023-02-05T14:01:31;9.50;99.90
38090;DHT22;23904;52.322;10.232;2023-02-05T14:04:03;10.30;99.90
38090;DHT22;23904;52.322;10.232;2023-02-05T14:06:38;10.90;98.20
38090;DHT22;23904;52.322;10.232;2023-02-05T14:09:06;10.30;98.60
38090;DHT22;23904;52.322;10.232;2023-02-05T14:11:51;8.80;99.90
38090;DHT22;23904;52.322;10.232;2023-02-05T14:14:27;8.40;99.90
38090;DHT22;23904;52.322;10.232;2023-02-05T14:16:56;7.90;99.90
38090;DHT22;23904;52.322;10.232;2023-02-05T14:19:26;7.70;99.90
38090;DHT22;23904;52.322;10.232;2023-02-05T14:22:32;7.50;99.90
38090;DHT22;23904;52.322;10.232;2023-02-05T14:24:58;7.50;99.90
38090;DHT22;23904;52.322;10.232;2023-02-05T14:32:57;6.40;99.90
38090;DHT22;23904;52.322;10.232;2023-02-05T14:35:31;6.30;99.90
38090;DHT22;23904;52.322;10.232;2023-02-05T14:38:25;6.20;99.90
38090;DHT22;23904;52.322;10.232;2023-02-05T14:41:14;5.80;99.90
38090;DHT22;23904;52.322;10.232;2023-02-05T14:43:56;5.80;99.90
38090;DHT22;23904;52.322;10.232;2023-02-05T14:46:36;6.10;99.90
38090;DHT22;23904;52.322;10.232;2023-02-05T14:49:06;6.30;99.90
38090;DHT22;23904;52.322;10.232;2023-02-05T14:51:57;6.40;99.90
38090;DHT22;23904;52.322;10.232;2023-02-05T14:54:43;6.30;99.90
38090;DHT22;23904;52.322;10.232;2023-02-05T14:57:35;6.10;99.90
38090;DHT22;23904;52.322;10.232;2023-02-05T15:05:48;5.30;99.90
38090;DHT22;23904;52.322;10.232;2023-02-05T15:11:14;5.10;99.90
38090;DHT22;23904;52.322;10.232;2023-02-05T15:16:47;5.00;99.90
38090;DHT22;23904;52.322;10.232;2023-02-05T15:19:53;5.10;99.90
38090;DHT22;23904;52.322;10.232;2023-02-05T15:22:36;5.30;99.90
38090;DHT22;23904;52.322;10.232;2023-02-05T15:25:09;5.20;99.90
38090;DHT22;23904;52.322;10.232;2023-02-05T15:27:46;5.10;99.90
38090;DHT22;23904;52.322;10.232;2023-02-05T15:30:21;5.00;99.90
38090;DHT22;23904;52.322;10.232;2023-02-05T15:33:01;4.90;99.90
38090;DHT22;23904;52.322;10.232;2023-02-05T15:35:31;4.90;99.90
38090;DHT22;23904;52.322;10.232;2023-02-05T15:38:02;4.80;99.90
38090;DHT22;23904;52.322;10.232;2023-02-05T15:40:38;4.70;99.90
38090;DHT22;23904;52.322;10.232;2023-02-05T15:43:22;4.80;99.90
38090;DHT22;23904;52.322;10.232;2023-02-05T15:45:51;4.70;99.90
38090;DHT22;23904;52.322;10.232;2023-02-05T15:48:29;4.70;99.90
38090;DHT22;23904;52.322;10.232;2023-02-05T15:51:04;4.80;99.90
38090;DHT22;23904;52.322;10.232;2023-02-05T15:53:39;4.90;99.90
38090;DHT22;23904;52.322;10.232;2023-02-05T15:56:35;4.80;99.90
38090;DHT22;23904;52.322;10.232;2023-02-05T15:59:26;4.70;99.90
38090;DHT22;23904;52.322;10.232;2023-02-05T16:02:03;4.70;99.90
38090;DHT22;23904;52.322;10.232;2023-02-05T16:04:33;4.60;99.90
38090;DHT22;23904;52.322;10.232;2023-02-05T16:07:14;4.40;99.90
38090;DHT22;23904;52.322;10.232;2023-02-05T16:09:48;4.30;99.90
38090;DHT22;23904;52.322;10.232;2023-02-05T16:12:15;4.30;99.90
38090;DHT22;23904;52.322;10.232;2023-02-05T16:14:41;4.30;99.90
38090;DHT22;23904;52.322;10.232;2023-02-05T16:17:20;4.20;99.90
38090;DHT22;23904;52.322;10.232;2023-02-05T16:20:19;4.10;99.90
38090;DHT22;23904;52.322;10.232;2023-02-05T16:23:00;4.10;99.90
38090;DHT22;23904;52.322;10.232;2023-02-05T16:25:49;4.00;99.90
38090;DHT22;23904;52.322;10.232;2023-02-05T16:30:55;3.90;99.90
38090;DHT22;23904;52.322;10.232;2023-02-05T16:33:32;3.80;99.90
38090;DHT22;23904;52.322;10.232;2023-02-05T16:36:11;3.80;99.90
38090;DHT22;23904;52.322;10.232;2023-02-05T16:38:42;3.80;99.90
38090;DHT22;23904;52.322;10.232;2023-02-05T16:41:28;3.80;99.90
38090;DHT22;23904;52.322;10.232;2023-02-05T16:43:59;3.80;99.90
38090;DHT22;23904;52.322;10.232;2023-02-05T16:46:30;3.80;99.90
38090;DHT22;23904;52.322;10.232;2023-02-05T16:56:49;3.80;99.90
38090;DHT22;23904;52.322;10.232;2023-02-05T16:59:21;3.90;99.90
38090;DHT22;23904;52.322;10.232;2023-02-05T17:01:53;3.90;99.90
38090;DHT22;23904;52.322;10.232;2023-02-05T17:04:26;3.90;99.90
38090;DHT22;23904;52.322;10.232;2023-02-05T17:06:56;3.90;99.90
38090;DHT22;23904;52.322;10.232;2023-02-05T17:09:35;4.00;99.90
38090;DHT22;23904;52.322;10.232;2023-02-05T17:14:58;3.90;99.90
38090;DHT22;23904;52.322;10.232;2023-02-05T17:17:25;3.90;99.90
38090;DHT22;23904;52.322;10.232;2023-02-05T17:22:34;3.80;99.90
38090;DHT22;23904;52.322;10.232;2023-02-05T17:25:00;3.80;99.90
38090;DHT22;23904;52.322;10.232;2023-02-05T17:27:45;3.70;99.90
38090;DHT22;23904;52.322;10.232;2023-02-05T17:30:15;3.80;99.90
38090;DHT22;23904;52.322;10.232;2023-02-05T17:32:44;3.70;99.90
38090;DHT22;23904;52.322;10.232;2023-02-05T17:35:15;3.70;99.90
38090;DHT22;23904;52.322;10.232;2023-02-05T17:37:41;3.70;99.90
38090;DHT22;23904;52.322;10.232;2023-02-05T17:40:07;3.70;99.90
38090;DHT22;23904;52.322;10.232;2023-02-05T17:42:34;3.60;99.90
38090;DHT22;23904;52.322;10.232;2023-02-05T17:44:59;3.60;99.90
38090;DHT22;23904;52.322;10.232;2023-02-05T17:47:25;3.70;99.90